Time;durP1;ratioP1;P1;durP2;ratioP2;P2;SDS_P1;SDS_P2;PMS_P1;PMS_P2;Temp;Humidity;BMP_temperature;BMP_pressure;BME280_temperature;BME280_humidity;BME280_pressure;Samples;Min_cycle;Max_cycle;Signal;HPM_P1;HPM_P2
2023/06/30 00:00:50;;;;;;;3.67;2.70;;;;;;;17.17;85.77;97889.41;2584752;28;20044;-91
2023/06/30 00:02:26;;;;;;;4.78;2.65;;;;;;;17.24;83.32;97884.59;2584043;28;20046;-92
2023/06/30 00:03:45;;;;;;;6.53;3.28;;;;;;;17.25;83.71;97890.72;2583255;28;20133;-91
2023/06/30 00:05:00;;;;;;;5.60;2.70;;;;;;;17.25;84.27;97882.78;2584081;28;20046;-92
2023/06/30 00:06:16;;;;;;;3.50;2.85;;;;;;;17.28;83.40;97894.00;2584787;28;20501;-93
2023/06/30 00:07:32;;;;;;;4.03;2.80;;;;;;;17.23;84.22;97890.81;2576696;28;20047;-91
2023/06/30 00:08:48;;;;;;;6.07;3.13;;;;;;;17.06;88.22;97892.75;2585168;28;20049;-92
2023/06/30 00:10:04;;;;;;;3.63;2.97;;;;;;;17.05;87.70;97892.84;2585659;28;20054;-92
2023/06/30 00:11:23;;;;;;;4.07;2.70;;;;;;;16.97;87.84;97890.66;2585118;28;20068;-92
2023/06/30 00:12:39;;;;;;;4.60;3.33;;;;;;;16.79;88.55;97888.22;2584792;28;20058;-93
2023/06/30 00:13:55;;;;;;;4.20;3.35;;;;;;;16.90;90.85;97889.31;2583547;28;20465;-90
2023/06/30 00:15:10;;;;;;;4.78;2.92;;;;;;;17.02;89.29;97888.59;2588856;28;20041;-93
2023/06/30 00:16:26;;;;;;;4.55;2.90;;;;;;;17.06;88.34;97882.19;2586439;28;20391;-92
2023/06/30 00:17:42;;;;;;;3.67;2.88;;;;;;;16.91;85.65;97888.41;2588642;28;20441;-92
2023/06/30 00:18:58;;;;;;;4.10;2.70;;;;;;;17.00;87.51;97887.00;2586392;28;20043;-92
2023/06/30 00:20:14;;;;;;;3.25;2.95;;;;;;;17.15;86.64;97887.81;2577513;28;20065;-92
2023/06/30 00:21:29;;;;;;;4.20;3.13;;;;;;;17.18;84.58;97879.66;2583456;28;20038;-92
2023/06/30 00:22:45;;;;;;;3.28;2.72;;;;;;;17.21;84.04;97882.13;2584111;28;20457;-92
2023/06/30 00:24:04;;;;;;;3.60;2.83;;;;;;;17.30;83.75;97885.97;2578183;28;20146;-92
2023/06/30 00:25:19;;;;;;;4.70;2.83;;;;;;;17.31;83.89;97880.56;2585094;28;20064;-92
2023/06/30 00:26:35;;;;;;;3.95;2.60;;;;;;;17.28;84.39;97885.25;2584143;28;20110;-92
2023/06/30 00:27:51;;;;;;;4.97;2.80;;;;;;;17.15;86.74;97890.44;2582631;28;20057;-92
2023/06/30 00:29:07;;;;;;;3.65;2.83;;;;;;;17.00;90.17;97885.19;2586244;28;20061;-92
2023/06/30 00:30:23;;;;;;;3.92;2.72;;;;;;;16.93;90.96;97883.88;2596911;28;20038;-91
2023/06/30 00:31:38;;;;;;;3.28;2.75;;;;;;;16.85;93.23;97889.63;2594260;28;20050;-93
2023/06/30 00:32:54;;;;;;;4.47;2.90;;;;;;;16.87;93.51;97886.88;2592657;28;20502;-92
2023/06/30 00:34:09;;;;;;;3.05;2.75;;;;;;;16.90;93.57;97890.19;2592938;28;20041;-93
2023/06/30 00:35:25;;;;;;;4.43;3.05;;;;;;;16.93;92.55;97886.50;2597847;28;20068;-92
2023/06/30 00:36:40;;;;;;;3.33;2.90;;;;;;;16.94;91.62;97883.75;2594632;28;20077;-91
2023/06/30 00:37:56;;;;;;;3.30;2.70;;;;;;;16.90;91.55;97884.03;2594663;28;20103;-92
2023/06/30 00:39:12;;;;;;;3.72;2.70;;;;;;;16.80;94.39;97876.72;2585001;28;20537;-92
2023/06/30 00:40:27;;;;;;;4.63;2.90;;;;;;;16.86;92.97;97874.63;2588928;28;20053;-91
2023/06/30 00:41:43;;;;;;;3.15;2.65;;;;;;;16.91;91.73;97878.66;2580301;28;20050;-91
2023/06/30 00:43:00;;;;;;;3.30;2.70;;;;;;;16.87;88.49;97876.31;2577200;28;20057;-92
2023/06/30 00:44:16;;;;;;;3.78;2.88;;;;;;;16.80;92.94;97871.41;2577160;28;20109;-92
2023/06/30 00:45:33;;;;;;;4.78;2.80;;;;;;;16.85;90.46;97867.63;2579243;28;20046;-92
2023/06/30 00:46:48;;;;;;;5.05;2.90;;;;;;;16.92;88.46;97875.06;2584794;28;20466;-91
2023/06/30 00:48:04;;;;;;;3.55;2.92;;;;;;;16.96;88.48;97873.09;2583911;28;20046;-92
2023/06/30 00:49:20;;;;;;;3.67;3.25;;;;;;;16.98;92.33;97871.19;2584928;28;20177;-92
2023/06/30 00:50:36;;;;;;;3.53;2.80;;;;;;;17.02;90.41;97869.25;2583435;28;20047;-92
2023/06/30 00:51:52;;;;;;;5.57;2.83;;;;;;;17.05;90.94;97864.63;2584946;28;20042;-93
2023/06/30 00:53:08;;;;;;;3.17;2.88;;;;;;;16.92;92.94;97861.84;2584333;28;20112;-92
2023/06/30 00:54:24;;;;;;;3.63;3.03;;;;;;;16.97;91.71;97864.22;2584127;28;20053;-92
2023/06/30 00:55:40;;;;;;;5.00;3.15;;;;;;;17.00;91.71;97869.31;2583845;28;20413;-92
2023/06/30 00:57:04;;;;;;;3.40;2.97;;;;;;;17.07;90.47;97868.00;2584532;28;20053;-91
2023/06/30 00:58:20;;;;;;;3.38;3.00;;;;;;;17.01;91.41;97860.44;2584107;28;20416;-92
2023/06/30 00:59:36;;;;;;;3.67;2.85;;;;;;;16.99;90.26;97862.34;2583741;28;20046;-93
2023/06/30 01:00:59;;;;;;;3.05;2.75;;;;;;;16.81;95.55;97864.31;2582201;28;20050;-92
2023/06/30 01:02:27;;;;;;;3.88;2.78;;;;;;;16.78;96.54;97857.44;2582391;28;20050;-92
2023/06/30 01:03:48;;;;;;;3.65;2.85;;;;;;;16.77;98.27;97857.53;2583934;28;20054;-92
2023/06/30 01:05:11;;;;;;;3.65;2.67;;;;;;;16.83;95.83;97858.94;2584948;28;20077;-92
2023/06/30 01:06:37;;;;;;;5.22;3.72;;;;;;;16.98;92.96;97854.50;2582898;28;20170;-93
2023/06/30 01:08:16;;;;;;;4.18;3.33;;;;;;;16.98;91.25;97850.03;2585450;28;20050;-92
2023/06/30 01:09:38;;;;;;;3.65;2.90;;;;;;;16.94;92.70;97849.38;2583125;28;20046;-92
2023/06/30 01:10:56;;;;;;;4.50;2.97;;;;;;;16.98;90.73;97844.75;2583567;28;20053;-92
2023/06/30 01:12:12;;;;;;;3.85;3.08;;;;;;;17.10;88.11;97843.13;2582476;28;20050;-92
2023/06/30 01:13:31;;;;;;;3.72;3.13;;;;;;;17.14;88.44;97846.44;2583479;28;20395;-92
2023/06/30 01:14:48;;;;;;;4.43;3.25;;;;;;;17.20;90.63;97840.75;2583117;28;20421;-91
2023/06/30 01:16:05;;;;;;;3.58;3.05;;;;;;;17.18;93.90;97843.50;2584872;28;20042;-91
2023/06/30 01:17:24;;;;;;;4.97;3.38;;;;;;;17.18;94.21;97845.28;2582564;28;20542;-91
2023/06/30 01:18:43;;;;;;;3.95;3.22;;;;;;;17.16;92.36;97847.19;2583904;28;20046;-91
2023/06/30 01:20:00;;;;;;;3.20;2.90;;;;;;;17.12;92.10;97846.56;2587693;28;20125;-91
2023/06/30 01:21:17;;;;;;;5.80;3.20;;;;;;;17.12;93.47;97843.03;2585324;28;20049;-91
2023/06/30 01:22:41;;;;;;;4.65;3.40;;;;;;;17.08;93.35;97845.91;2582105;28;20057;-91
2023/06/30 01:24:04;;;;;;;4.28;3.10;;;;;;;17.14;91.86;97839.38;2579155;28;20223;-91
2023/06/30 01:25:26;;;;;;;3.30;3.00;;;;;;;17.12;92.27;97840.41;2582195;28;20050;-91
2023/06/30 01:26:42;;;;;;;;;;;;;;;17.19;92.13;97847.00;2584667;28;20077;-91
2023/06/30 01:27:59;;;;;;;4.35;2.92;;;;;;;17.13;92.88;97842.97;2582177;28;19921;-92
2023/06/30 01:29:14;;;;;;;3.83;3.08;;;;;;;17.16;91.51;97836.59;2583160;28;20050;-91
2023/06/30 01:30:31;;;;;;;4.43;3.42;;;;;;;17.21;90.68;97838.00;2583277;28;21037;-92
2023/06/30 01:31:46;;;;;;;5.28;3.17;;;;;;;17.21;93.16;97835.34;2584406;28;20105;-91
2023/06/30 01:33:02;;;;;;;4.88;3.15;;;;;;;17.22;89.67;97831.75;2584831;28;20046;-91
2023/06/30 01:34:18;;;;;;;4.10;3.08;;;;;;;17.24;91.00;97831.69;2582111;28;20057;-90
2023/06/30 01:35:34;;;;;;;3.80;2.92;;;;;;;17.28;91.45;97832.34;2587553;28;20521;-93
2023/06/30 01:36:49;;;;;;;2.90;2.70;;;;;;;17.20;89.79;97833.66;2586582;28;20100;-91
2023/06/30 01:38:05;;;;;;;4.63;3.05;;;;;;;17.19;92.30;97831.97;2584197;28;20107;-92
2023/06/30 01:39:21;;;;;;;3.58;3.28;;;;;;;17.21;92.30;97835.34;2587863;28;20049;-92
2023/06/30 01:40:37;;;;;;;6.90;3.10;;;;;;;17.23;92.63;97835.28;2586783;28;20057;-92
2023/06/30 01:41:53;;;;;;;5.30;3.13;;;;;;;17.29;91.71;97834.84;2587740;28;20045;-91
2023/06/30 01:43:09;;;;;;;4.72;2.90;;;;;;;17.25;90.97;97830.72;2585365;28;20045;-92
2023/06/30 01:44:24;;;;;;;4.22;3.30;;;;;;;17.29;92.20;97831.38;2588119;28;20084;-92
2023/06/30 01:45:40;;;;;;;5.57;2.95;;;;;;;17.30;95.14;97833.91;2585495;28;20541;-91
2023/06/30 01:46:56;;;;;;;3.45;2.90;;;;;;;17.30;93.65;97831.25;2583991;28;20046;-92
2023/06/30 01:48:11;;;;;;;3.90;3.03;;;;;;;17.19;90.85;97831.97;2583341;28;20100;-92
2023/06/30 01:49:28;;;;;;;4.57;3.15;;;;;;;16.91;94.71;97827.59;2582326;28;20128;-91
2023/06/30 01:50:45;;;;;;;3.35;3.05;;;;;;;16.82;95.80;97829.00;2583521;28;20044;-93
2023/06/30 01:52:01;;;;;;;7.95;3.20;;;;;;;16.94;97.72;97835.31;2582324;28;20050;-92
2023/06/30 01:53:17;;;;;;;4.50;3.42;;;;;;;17.00;95.60;97826.19;2582553;28;20181;-92
2023/06/30 01:54:33;;;;;;;4.20;3.10;;;;;;;17.11;93.87;97828.97;2583629;28;20093;-91
2023/06/30 01:55:48;;;;;;;3.28;2.97;;;;;;;17.10;94.12;97824.63;2582829;28;20050;-92
2023/06/30 01:57:04;;;;;;;3.20;2.92;;;;;;;17.05;95.15;97817.00;2583607;28;20284;-93
2023/06/30 01:58:20;;;;;;;5.57;3.00;;;;;;;16.92;96.89;97818.72;2582811;28;20109;-92
2023/06/30 01:59:36;;;;;;;4.28;3.28;;;;;;;16.96;96.33;97817.56;2583097;28;20129;-91
2023/06/30 02:00:51;;;;;;;3.75;2.92;;;;;;;16.98;98.95;97815.66;2587418;28;20077;-91
2023/06/30 02:02:07;;;;;;;4.75;3.40;;;;;;;17.13;97.10;97818.28;2585525;28;20050;-92
2023/06/30 02:03:22;;;;;;;3.55;3.13;;;;;;;17.13;94.42;97815.66;2583641;28;20050;-91
2023/06/30 02:04:38;;;;;;;3.45;2.80;;;;;;;17.18;92.49;97808.25;2582670;28;20129;-91
2023/06/30 02:05:54;;;;;;;4.10;3.15;;;;;;;17.21;94.99;97808.91;2584665;28;20050;-91
2023/06/30 02:07:09;;;;;;;4.53;3.28;;;;;;;17.27;98.72;97801.53;2583914;28;20109;-91
2023/06/30 02:08:25;;;;;;;3.88;3.35;;;;;;;17.28;97.37;97798.78;2584232;28;20053;-93
2023/06/30 02:09:41;;;;;;;3.58;3.00;;;;;;;17.29;94.84;97805.75;2583197;28;20077;-92
2023/06/30 02:10:56;;;;;;;6.32;3.00;;;;;;;17.34;92.77;97802.81;2583826;28;20113;-92
2023/06/30 02:12:12;;;;;;;3.63;3.17;;;;;;;17.38;93.54;97804.28;2583290;28;20050;-90
2023/06/30 02:13:27;;;;;;;5.25;3.08;;;;;;;17.39;93.23;97806.03;2583703;28;20568;-91
2023/06/30 02:14:43;;;;;;;4.07;2.92;;;;;;;17.39;92.84;97807.81;2582667;28;20104;-91
2023/06/30 02:15:59;;;;;;;4.30;3.20;;;;;;;17.45;92.58;97804.72;2583659;28;20067;-91
2023/06/30 02:17:14;;;;;;;4.13;2.97;;;;;;;17.35;94.35;97805.38;2582795;28;20045;-92
2023/06/30 02:18:30;;;;;;;4.30;3.08;;;;;;;17.15;95.00;97805.81;2581834;28;20057;-91
2023/06/30 02:19:46;;;;;;;4.15;2.95;;;;;;;17.16;94.50;97803.06;2583941;28;20049;-91
2023/06/30 02:21:02;;;;;;;4.07;3.20;;;;;;;17.23;96.31;97801.72;2584029;28;20046;-92
2023/06/30 02:22:17;;;;;;;3.42;3.03;;;;;;;16.98;96.01;97805.09;2582759;28;20470;-91
2023/06/30 02:23:33;;;;;;;6.40;3.60;;;;;;;16.99;96.07;97798.00;2583223;28;20042;-91
2023/06/30 02:24:49;;;;;;;3.78;2.95;;;;;;;17.08;95.75;97798.28;2583383;28;20104;-90
2023/06/30 02:26:04;;;;;;;5.00;3.33;;;;;;;16.91;100.00;97801.16;2583249;28;20490;-91
2023/06/30 02:27:20;;;;;;;3.70;3.28;;;;;;;17.23;98.14;97796.41;2582396;28;20509;-91
2023/06/30 02:28:35;;;;;;;4.95;2.97;;;;;;;17.22;98.21;97792.09;2587461;28;20045;-92
2023/06/30 02:29:51;;;;;;;3.30;3.00;;;;;;;17.23;98.71;97790.28;2584974;28;20053;-93
2023/06/30 02:31:07;;;;;;;3.60;3.20;;;;;;;17.26;98.90;97794.56;2581927;28;20058;-92
2023/06/30 02:32:22;;;;;;;3.80;3.40;;;;;;;17.08;100.00;97792.13;2587634;28;20108;-91
2023/06/30 02:33:38;;;;;;;4.75;3.30;;;;;;;17.11;100.00;97797.22;2586252;28;20045;-91
2023/06/30 02:34:54;;;;;;;3.83;3.10;;;;;;;17.03;100.00;97799.53;2582656;28;20121;-89
2023/06/30 02:36:10;;;;;;;3.75;3.30;;;;;;;17.07;100.00;97788.66;2583014;28;20045;-91
2023/06/30 02:37:25;;;;;;;4.82;3.47;;;;;;;17.14;99.90;97781.19;2582796;28;20054;-91
2023/06/30 02:38:41;;;;;;;3.75;3.35;;;;;;;17.14;100.00;97781.19;2583211;28;20105;-92
2023/06/30 02:39:56;;;;;;;4.65;3.30;;;;;;;17.06;100.00;97784.31;2581514;28;20081;-91
2023/06/30 02:41:12;;;;;;;4.47;3.30;;;;;;;17.10;99.34;97784.94;2582982;28;20054;-92
2023/06/30 02:42:28;;;;;;;3.85;2.90;;;;;;;17.12;96.35;97792.78;2581976;28;20053;-91
2023/06/30 02:43:44;;;;;;;5.35;3.03;;;;;;;17.08;98.27;97777.13;2581648;28;20046;-91
2023/06/30 02:45:00;;;;;;;5.97;3.40;;;;;;;17.07;97.97;97785.16;2584064;28;20046;-90
2023/06/30 02:46:15;;;;;;;4.32;3.30;;;;;;;17.19;97.80;97780.88;2582154;28;20385;-91
2023/06/30 02:47:31;;;;;;;4.32;3.15;;;;;;;17.32;96.33;97789.69;2581455;28;20049;-91
2023/06/30 02:48:46;;;;;;;3.17;2.90;;;;;;;17.34;94.27;97787.78;2582420;28;20058;-91
2023/06/30 02:50:02;;;;;;;3.85;3.22;;;;;;;17.20;94.06;97785.22;2584037;28;20057;-91
2023/06/30 02:51:18;;;;;;;3.50;3.15;;;;;;;17.10;94.84;97781.47;2587109;28;20050;-91
2023/06/30 02:52:33;;;;;;;3.83;3.22;;;;;;;17.15;93.72;97785.50;2585793;28;20048;-91
2023/06/30 02:53:49;;;;;;;3.92;3.38;;;;;;;17.18;94.50;97782.66;2583608;28;20054;-90
2023/06/30 02:55:05;;;;;;;3.40;3.10;;;;;;;17.28;90.87;97788.19;2584600;28;20049;-91
2023/06/30 02:56:20;;;;;;;3.90;3.28;;;;;;;17.23;93.71;97782.38;2583483;28;20038;-91
2023/06/30 02:57:36;;;;;;;4.88;3.38;;;;;;;17.22;93.80;97775.38;2583995;28;20471;-91
2023/06/30 02:58:52;;;;;;;4.43;3.88;;;;;;;17.27;93.71;97780.38;2581764;28;20054;-91
2023/06/30 03:00:09;;;;;;;3.35;3.05;;;;;;;17.27;90.25;97777.72;2583115;28;20398;-91
2023/06/30 03:01:24;;;;;;;3.65;2.92;;;;;;;17.27;90.69;97775.06;2583356;28;20049;-92
2023/06/30 03:02:40;;;;;;;4.20;3.20;;;;;;;17.29;91.23;97774.00;2581838;28;20046;-92
2023/06/30 03:03:56;;;;;;;6.70;3.40;;;;;;;17.35;92.05;97781.56;2584083;28;20731;-91
2023/06/30 03:05:11;;;;;;;6.18;3.20;;;;;;;17.35;92.71;97775.41;2587453;28;20148;-91
2023/06/30 03:06:27;;;;;;;4.05;3.20;;;;;;;17.33;93.96;97775.53;2584793;28;20420;-90
2023/06/30 03:07:42;;;;;;;3.95;3.33;;;;;;;17.41;92.33;97776.78;2581123;28;20046;-91
2023/06/30 03:08:58;;;;;;;5.57;3.30;;;;;;;17.21;92.90;97777.16;2583022;28;20052;-91
2023/06/30 03:10:14;;;;;;;5.97;3.53;;;;;;;17.23;95.61;97774.44;2587442;28;20050;-91
2023/06/30 03:11:29;;;;;;;5.68;3.55;;;;;;;17.23;95.32;97769.97;2586280;28;20046;-91
2023/06/30 03:12:45;;;;;;;4.95;3.70;;;;;;;17.26;94.12;97771.56;2587285;28;20052;-91
2023/06/30 03:14:00;;;;;;;5.07;3.47;;;;;;;17.28;94.62;97769.66;2586037;28;20046;-91
2023/06/30 03:15:16;;;;;;;4.07;3.55;;;;;;;17.34;94.58;97769.28;2577560;28;20433;-91
2023/06/30 03:16:32;;;;;;;3.72;3.40;;;;;;;17.36;93.89;97771.81;2581649;28;20198;-91
2023/06/30 03:17:47;;;;;;;3.90;3.30;;;;;;;17.23;95.17;97771.78;2581211;28;20577;-91
2023/06/30 03:19:03;;;;;;;4.53;3.60;;;;;;;17.28;94.55;97785.53;2583160;28;20410;-91
2023/06/30 03:20:19;;;;;;;4.00;3.40;;;;;;;17.34;94.57;97779.00;2584386;28;20046;-91
2023/06/30 03:21:34;;;;;;;4.00;3.35;;;;;;;17.27;94.65;97783.84;2581415;28;20073;-90
2023/06/30 03:22:52;;;;;;;4.95;3.55;;;;;;;17.15;93.74;97779.38;2581283;28;20061;-91
2023/06/30 03:24:08;;;;;;;3.33;3.00;;;;;;;17.24;93.83;97784.06;2582860;28;20050;-91
2023/06/30 03:25:23;;;;;;;5.55;3.33;;;;;;;17.06;96.99;97789.63;2582870;28;20060;-91
2023/06/30 03:26:39;;;;;;;5.30;3.30;;;;;;;16.96;98.53;97785.84;2585908;28;20192;-92
2023/06/30 03:27:54;;;;;;;5.15;3.50;;;;;;;17.14;97.03;97786.47;2586166;28;20046;-92
2023/06/30 03:29:10;;;;;;;4.57;3.50;;;;;;;17.05;97.28;97784.41;2583488;28;20050;-91
2023/06/30 03:30:25;;;;;;;8.10;3.38;;;;;;;17.02;97.00;97784.63;2583860;28;20112;-92
2023/06/30 03:31:41;;;;;;;3.50;3.20;;;;;;;17.12;96.84;97784.84;2589201;28;20042;-91
2023/06/30 03:32:57;;;;;;;4.93;3.35;;;;;;;17.17;97.87;97780.09;2586865;28;20053;-90
2023/06/30 03:34:12;;;;;;;4.30;3.50;;;;;;;17.23;96.88;97783.19;2589162;28;20061;-92
2023/06/30 03:35:28;;;;;;;3.60;3.30;;;;;;;17.21;95.11;97781.63;2580587;28;20065;-91
2023/06/30 03:36:43;;;;;;;5.18;3.53;;;;;;;17.14;96.00;97775.03;2584764;28;20663;-92
2023/06/30 03:37:59;;;;;;;5.35;3.70;;;;;;;17.17;96.77;97780.09;2589102;28;20121;-92
2023/06/30 03:39:15;;;;;;;7.50;3.72;;;;;;;17.20;96.48;97783.41;2580602;28;20185;-91
2023/06/30 03:40:30;;;;;;;8.55;3.80;;;;;;;17.22;97.35;97783.31;2583134;28;20085;-93
2023/06/30 03:41:47;;;;;;;4.90;3.42;;;;;;;17.23;95.20;97774.44;2586896;28;20471;-92
2023/06/30 03:43:02;;;;;;;5.05;3.53;;;;;;;17.11;96.47;97772.59;2583318;28;20042;-92
2023/06/30 03:44:18;;;;;;;6.97;3.58;;;;;;;17.21;96.49;97776.34;2585592;28;20185;-89
2023/06/30 03:45:34;;;;;;;7.88;3.70;;;;;;;17.19;95.59;97778.22;2584088;28;20137;-92
2023/06/30 03:46:49;;;;;;;5.68;3.72;;;;;;;17.24;93.63;97778.75;2582187;28;20121;-92
2023/06/30 03:48:05;;;;;;;5.05;3.78;;;;;;;17.30;94.67;97777.50;2583967;28;20053;-92
2023/06/30 03:49:21;;;;;;;4.72;3.50;;;;;;;17.39;92.63;97781.34;2586206;28;20053;-92
2023/06/30 03:50:37;;;;;;;4.43;3.30;;;;;;;17.43;93.92;97774.88;2585589;28;20073;-91
2023/06/30 03:51:52;;;;;;;3.72;3.35;;;;;;;17.54;95.56;97777.66;2585202;28;20929;-91
2023/06/30 03:53:08;;;;;;;6.40;3.40;;;;;;;17.49;93.69;97777.97;2583964;28;20417;-92
2023/06/30 03:54:23;;;;;;;5.25;3.60;;;;;;;17.53;93.08;97769.81;2585608;28;20050;-91
2023/06/30 03:55:39;;;;;;;4.72;3.40;;;;;;;17.55;92.22;97776.72;2583288;28;20104;-91
2023/06/30 03:56:57;;;;;;;3.88;3.20;;;;;;;17.64;91.14;97775.22;2585190;28;20413;-91
2023/06/30 03:58:12;;;;;;;5.85;3.22;;;;;;;17.59;91.41;97780.84;2583740;28;20042;-90
2023/06/30 03:59:28;;;;;;;3.40;3.10;;;;;;;17.55;93.39;97784.66;2585453;28;20061;-91
2023/06/30 04:00:43;;;;;;;4.05;3.40;;;;;;;17.47;92.54;97777.22;2585139;28;20038;-90
2023/06/30 04:01:59;;;;;;;5.38;3.20;;;;;;;17.58;90.07;97773.84;2588517;28;21043;-91
2023/06/30 04:03:14;;;;;;;4.03;3.30;;;;;;;17.56;92.87;97786.34;2587660;28;20720;-91
2023/06/30 04:04:30;;;;;;;5.40;3.42;;;;;;;17.65;94.73;97777.78;2585599;28;20049;-90
2023/06/30 04:05:46;;;;;;;7.13;3.63;;;;;;;17.56;93.55;97783.69;2584308;28;20046;-92
2023/06/30 04:07:01;;;;;;;5.40;3.55;;;;;;;17.51;94.96;97788.47;2583230;28;20058;-91
2023/06/30 04:08:17;;;;;;;6.95;3.28;;;;;;;17.35;97.55;97784.19;2583959;28;20053;-91
2023/06/30 04:09:32;;;;;;;7.97;3.70;;;;;;;17.47;98.55;97787.81;2582808;28;20445;-90
2023/06/30 04:10:48;;;;;;;5.60;3.65;;;;;;;17.64;95.60;97784.03;2583777;28;20113;-91
2023/06/30 04:12:04;;;;;;;4.60;3.47;;;;;;;17.62;94.63;97780.66;2583648;28;21094;-90
2023/06/30 04:13:20;;;;;;;5.95;3.35;;;;;;;17.54;94.88;97782.97;2582999;28;20046;-88
2023/06/30 04:14:35;;;;;;;4.22;3.30;;;;;;;17.64;93.51;97783.19;2584902;28;20057;-86
2023/06/30 04:15:51;;;;;;;5.45;3.67;;;;;;;17.62;94.45;97779.78;2584298;28;20434;-86
2023/06/30 04:17:06;;;;;;;5.50;3.58;;;;;;;17.70;94.89;97790.72;2583768;28;20061;-86
2023/06/30 04:18:22;;;;;;;4.85;3.58;;;;;;;17.53;95.23;97791.84;2584300;28;20182;-85
2023/06/30 04:19:37;;;;;;;3.50;3.20;;;;;;;17.57;96.60;97790.69;2585111;28;20051;-86
2023/06/30 04:20:53;;;;;;;4.55;3.38;;;;;;;17.52;96.80;97787.50;2584838;28;20061;-86
2023/06/30 04:22:08;;;;;;;5.72;3.63;;;;;;;17.55;94.53;97783.81;2583188;28;20042;-86
2023/06/30 04:23:24;;;;;;;4.13;3.42;;;;;;;17.67;96.05;97780.34;2582884;28;20074;-86
2023/06/30 04:24:40;;;;;;;4.28;3.63;;;;;;;17.72;95.78;97780.88;2584733;28;20413;-85
2023/06/30 04:25:56;;;;;;;3.78;3.33;;;;;;;17.68;92.94;97782.03;2585004;28;20046;-85
2023/06/30 04:27:12;;;;;;;6.93;3.35;;;;;;;17.59;95.85;97780.00;2583350;28;20482;-86
2023/06/30 04:28:27;;;;;;;5.40;3.60;;;;;;;17.58;94.87;97780.97;2583705;28;20058;-85
2023/06/30 04:29:43;;;;;;;4.57;3.63;;;;;;;17.56;93.31;97781.06;2584072;28;20050;-85
2023/06/30 04:30:59;;;;;;;5.65;3.42;;;;;;;17.55;94.29;97783.81;2583114;28;20046;-86
2023/06/30 04:32:15;;;;;;;4.53;3.42;;;;;;;17.57;93.12;97788.03;2584938;28;20589;-86
2023/06/30 04:33:33;;;;;;;5.30;3.55;;;;;;;17.68;91.56;97786.47;2588536;28;20065;-86
2023/06/30 04:34:48;;;;;;;4.75;3.35;;;;;;;17.73;91.66;97787.00;2587192;28;20046;-86
2023/06/30 04:36:06;;;;;;;6.13;3.95;;;;;;;17.69;91.69;97788.16;2583493;28;20085;-86
2023/06/30 04:37:23;;;;;;;4.18;3.45;;;;;;;17.74;90.25;97784.25;2585963;28;20042;-85
2023/06/30 04:38:39;;;;;;;4.28;3.88;;;;;;;17.81;89.68;97787.34;2585351;28;20077;-85
2023/06/30 04:39:58;;;;;;;6.22;3.50;;;;;;;17.89;89.81;97782.38;2584175;28;20494;-85
2023/06/30 04:41:15;;;;;;;5.97;3.45;;;;;;;17.91;91.15;97783.09;2584773;28;20050;-85
2023/06/30 04:42:32;;;;;;;3.80;3.40;;;;;;;17.83;91.40;97774.84;2585055;28;20078;-85
2023/06/30 04:43:48;;;;;;;3.80;3.40;;;;;;;17.87;91.22;97781.59;2583421;28;20069;-84
2023/06/30 04:45:05;;;;;;;4.20;3.70;;;;;;;17.85;91.53;97767.63;2584615;28;20520;-85
2023/06/30 04:46:20;;;;;;;5.25;3.50;;;;;;;17.93;91.89;97769.75;2584119;28;20084;-85
2023/06/30 04:47:36;;;;;;;5.93;3.83;;;;;;;17.92;92.20;97776.84;2583892;28;20046;-85
2023/06/30 04:48:52;;;;;;;5.07;3.22;;;;;;;17.75;93.71;97785.13;2583154;28;20081;-85
2023/06/30 04:50:08;;;;;;;3.58;3.28;;;;;;;17.57;96.53;97793.34;2582916;28;20051;-85
2023/06/30 04:51:23;;;;;;;5.47;3.58;;;;;;;17.63;99.02;97787.63;2582394;28;20449;-86
2023/06/30 04:52:39;;;;;;;3.80;3.40;;;;;;;17.72;93.95;97791.47;2585289;28;20150;-85
2023/06/30 04:53:55;;;;;;;6.57;3.70;;;;;;;17.83;94.56;97782.78;2583541;28;20483;-85
2023/06/30 04:55:10;;;;;;;9.65;4.25;;;;;;;17.69;96.98;97782.88;2583407;28;20073;-85
2023/06/30 04:56:26;;;;;;;10.30;3.75;;;;;;;17.57;97.30;97787.22;2583646;28;20511;-85
2023/06/30 04:57:41;;;;;;;5.85;3.60;;;;;;;17.68;95.28;97786.47;2583741;28;20058;-85
2023/06/30 04:58:57;;;;;;;4.88;3.72;;;;;;;17.84;92.49;97784.47;2583362;28;20254;-85
2023/06/30 05:00:13;;;;;;;4.07;3.63;;;;;;;17.95;92.55;97785.53;2584375;28;20062;-85
2023/06/30 05:01:29;;;;;;;5.72;3.75;;;;;;;17.90;93.03;97784.06;2583462;28;20111;-85
2023/06/30 05:02:45;;;;;;;4.38;3.70;;;;;;;18.01;93.40;97779.81;2583631;28;20209;-85
2023/06/30 05:04:00;;;;;;;3.90;3.45;;;;;;;18.00;92.10;97783.41;2583048;28;20061;-86
2023/06/30 05:05:17;;;;;;;6.78;4.20;;;;;;;17.91;91.34;97777.81;2584422;28;20050;-85
2023/06/30 05:06:32;;;;;;;6.47;3.65;;;;;;;17.75;92.46;97779.81;2584458;28;20460;-86
2023/06/30 05:07:48;;;;;;;4.95;3.53;;;;;;;17.75;94.12;97777.19;2585402;28;20442;-85
2023/06/30 05:09:03;;;;;;;4.60;3.67;;;;;;;17.84;93.11;97778.34;2582937;28;20051;-86
2023/06/30 05:10:19;;;;;;;5.47;3.55;;;;;;;17.82;94.78;97777.59;2584612;28;20086;-85
2023/06/30 05:11:34;;;;;;;5.90;3.55;;;;;;;17.81;96.60;97787.34;2585178;28;20469;-88
2023/06/30 05:12:50;;;;;;;4.75;3.65;;;;;;;17.71;98.41;97787.13;2584223;28;20157;-85
2023/06/30 05:14:06;;;;;;;5.22;3.70;;;;;;;17.76;97.67;97781.50;2583511;28;20046;-85
2023/06/30 05:15:21;;;;;;;3.63;3.33;;;;;;;17.87;97.76;97780.78;2582441;28;20050;-85
2023/06/30 05:16:37;;;;;;;5.10;3.70;;;;;;;17.93;97.58;97781.19;2583188;28;20490;-85
2023/06/30 05:17:52;;;;;;;4.82;3.90;;;;;;;17.97;97.08;97775.69;2585288;28;20100;-85
2023/06/30 05:19:08;;;;;;;4.05;3.63;;;;;;;18.04;92.45;97779.66;2583167;28;20050;-86
2023/06/30 05:20:24;;;;;;;4.90;3.30;;;;;;;18.04;92.37;97779.66;2583548;28;20049;-86
2023/06/30 05:21:39;;;;;;;5.65;3.65;;;;;;;18.11;89.58;97783.56;2584333;28;20046;-86
2023/06/30 05:22:55;;;;;;;5.72;3.42;;;;;;;18.09;87.72;97781.94;2583916;28;20050;-85
2023/06/30 05:24:10;;;;;;;4.72;3.72;;;;;;;18.28;85.65;97782.38;2583256;28;20038;-86
2023/06/30 05:25:26;;;;;;;4.00;3.60;;;;;;;18.21;87.49;97776.66;2584942;28;20547;-85
2023/06/30 05:26:42;;;;;;;5.82;3.50;;;;;;;18.31;86.56;97778.69;2584515;28;20233;-86
2023/06/30 05:27:57;;;;;;;4.22;3.50;;;;;;;18.20;86.17;97780.28;2583608;28;20557;-86
2023/06/30 05:29:13;;;;;;;4.22;3.45;;;;;;;18.07;89.34;97774.13;2582766;28;20054;-85
2023/06/30 05:30:28;;;;;;;4.53;3.53;;;;;;;18.12;87.72;97779.94;2584516;28;20107;-85
2023/06/30 05:31:44;;;;;;;4.28;3.63;;;;;;;18.17;90.21;97772.53;2582928;28;20060;-85
2023/06/30 05:33:00;;;;;;;3.90;3.50;;;;;;;18.19;87.47;97775.94;2584772;28;20081;-85
2023/06/30 05:34:15;;;;;;;5.68;3.67;;;;;;;18.26;88.08;97775.47;2584749;28;20411;-86
2023/06/30 05:35:31;;;;;;;3.88;3.50;;;;;;;18.28;86.56;97777.06;2582361;28;20113;-86
2023/06/30 05:36:46;;;;;;;6.70;3.38;;;;;;;18.48;84.95;97773.00;2583435;28;20050;-85
2023/06/30 05:38:02;;;;;;;7.00;3.55;;;;;;;18.67;83.01;97769.03;2583297;28;20054;-86
2023/06/30 05:39:18;;;;;;;7.65;3.60;;;;;;;18.69;84.61;97764.47;2583074;28;20509;-85
2023/06/30 05:40:33;;;;;;;8.48;3.75;;;;;;;18.42;85.76;97768.13;2583763;28;20050;-86
2023/06/30 05:41:49;;;;;;;7.60;3.65;;;;;;;18.55;84.13;97770.78;2583280;28;20414;-86
2023/06/30 05:43:05;;;;;;;9.70;4.00;;;;;;;18.47;84.97;97771.31;2583411;28;20079;-86
2023/06/30 05:44:20;;;;;;;8.50;3.80;;;;;;;18.40;84.93;97769.22;2585133;28;20050;-86
2023/06/30 05:45:37;;;;;;;6.88;3.60;;;;;;;18.46;85.38;97772.28;2583391;28;20061;-86
2023/06/30 05:46:52;;;;;;;5.20;3.75;;;;;;;18.46;85.87;97768.78;2583167;28;20101;-85
2023/06/30 05:48:08;;;;;;;5.22;3.85;;;;;;;18.35;86.46;97778.31;2582925;28;20088;-85
2023/06/30 05:49:24;;;;;;;8.82;3.90;;;;;;;18.58;84.42;97778.50;2582224;28;20391;-86
2023/06/30 05:50:40;;;;;;;10.63;4.18;;;;;;;18.58;83.09;97772.38;2584128;28;20061;-84
2023/06/30 05:51:55;;;;;;;7.50;3.60;;;;;;;18.61;83.66;97769.50;2583666;28;20619;-88
2023/06/30 05:53:11;;;;;;;8.13;3.78;;;;;;;18.70;83.76;97776.75;2580674;28;20422;-86
2023/06/30 05:54:27;;;;;;;6.57;3.70;;;;;;;18.81;82.53;97775.16;2584174;28;20039;-91
2023/06/30 05:55:42;;;;;;;6.72;4.05;;;;;;;18.80;81.76;97778.75;2584843;28;20413;-91
2023/06/30 05:56:58;;;;;;;7.25;4.05;;;;;;;18.85;82.20;97773.94;2582532;28;21138;-91
2023/06/30 05:58:13;;;;;;;9.50;3.63;;;;;;;18.82;82.02;97776.84;2582282;28;20046;-91
2023/06/30 05:59:30;;;;;;;4.00;3.65;;;;;;;18.83;81.67;97783.81;2582431;28;20140;-92